Time;durP1;ratioP1;P1;durP2;ratioP2;P2;SDS_P1;SDS_P2;PMS_P1;PMS_P2;Temp;Humidity;BMP_temperature;BMP_pressure;BME280_temperature;BME280_humidity;BME280_pressure;Samples;Min_cycle;Max_cycle;Signal;HPM_P1;HPM_P2
2024/01/24 00:01:13;;;;;;;32.95;6.13;;;;;;;9.55;100.00;99802.31;5008572;28;20057;-93
2024/01/24 00:04:12;;;;;;;36.05;6.45;;;;;;;9.53;100.00;99791.06;4987021;28;20522;-94
2024/01/24 00:07:21;;;;;;;32.97;6.13;;;;;;;9.50;100.00;99796.66;4994045;28;20042;-96
2024/01/24 00:09:57;;;;;;;39.42;7.38;;;;;;;9.41;100.00;99801.00;4970424;28;20161;-95
2024/01/24 00:12:35;;;;;;;33.40;5.47;;;;;;;9.43;100.00;99793.78;5001251;28;20045;-94
2024/01/24 00:15:10;;;;;;;28.08;5.47;;;;;;;9.40;100.00;99809.06;5005868;28;20049;-93
2024/01/24 00:18:11;;;;;;;27.10;5.57;;;;;;;9.42;100.00;99778.94;4971464;28;20124;-94
2024/01/24 00:20:37;;;;;;;32.45;5.72;;;;;;;9.44;100.00;99834.19;4985519;28;20068;-95
2024/01/24 00:23:18;;;;;;;;;;;;;;;;;;;;;
2024/01/24 00:26:25;;;;;;;42.20;5.43;;;;;;;9.33;100.00;99834.41;4997162;28;20034;-96
2024/01/24 00:29:25;;;;;;;42.08;7.00;;;;;;;9.39;100.00;99858.38;4983691;28;20045;-95
2024/01/24 00:32:03;;;;;;;34.92;7.13;;;;;;;9.37;100.00;99851.59;4976077;28;20056;-93
2024/01/24 00:34:43;;;;;;;36.53;7.28;;;;;;;9.38;100.00;99869.91;5001651;28;20568;-93
2024/01/24 00:37:56;;;;;;;43.75;7.35;;;;;;;9.40;100.00;99875.03;4983919;28;20073;-94
2024/01/24 00:40:47;;;;;;;30.65;5.85;;;;;;;9.38;100.00;99885.72;4983897;28;20042;-94
2024/01/24 00:43:40;;;;;;;36.22;5.88;;;;;;;9.36;100.00;99905.31;5009712;28;20577;-92
2024/01/24 00:46:19;;;;;;;31.88;5.35;;;;;;;9.40;100.00;99933.06;4978304;28;20029;-93
2024/01/24 00:49:09;;;;;;;32.78;7.28;;;;;;;9.43;100.00;99928.31;4996250;28;20099;-93
2024/01/24 00:51:38;;;;;;;40.65;6.97;;;;;;;9.38;100.00;99927.91;4970980;28;20169;-92
2024/01/24 00:54:04;;;;;;;34.47;7.45;;;;;;;9.38;100.00;99927.13;4981387;28;20022;-92
2024/01/24 00:56:30;;;;;;;33.30;6.32;;;;;;;9.38;100.00;99932.38;4996624;28;20526;-91
2024/01/24 00:58:56;;;;;;;38.90;6.25;;;;;;;9.36;100.00;99934.34;4992308;28;20049;-91
2024/01/24 01:01:37;;;;;;;49.53;8.48;;;;;;;9.48;100.00;99932.31;4980551;28;20052;-93
2024/01/24 01:04:04;;;;;;;32.47;6.47;;;;;;;9.43;100.00;99930.13;4992239;28;20080;-92
2024/01/24 01:06:29;;;;;;;32.40;5.05;;;;;;;9.37;100.00;99957.94;4990711;28;20268;-92
2024/01/24 01:08:55;;;;;;;41.08;6.47;;;;;;;9.32;100.00;99969.91;4985803;28;20079;-92
2024/01/24 01:11:21;;;;;;;47.50;6.75;;;;;;;9.25;100.00;99978.38;5009159;28;20049;-93
2024/01/24 01:13:48;;;;;;;31.52;6.40;;;;;;;9.22;100.00;99983.16;5011152;28;20437;-94
2024/01/24 01:16:14;;;;;;;37.78;6.60;;;;;;;9.13;100.00;99995.38;5005327;28;20034;-93
2024/01/24 01:18:40;;;;;;;38.95;7.07;;;;;;;9.01;100.00;99992.13;5003041;28;20067;-91
2024/01/24 01:21:05;;;;;;;31.23;5.00;;;;;;;8.92;100.00;99989.38;5017628;28;20528;-93
2024/01/24 01:23:31;;;;;;;31.30;6.10;;;;;;;8.89;100.00;99999.38;5011670;28;20108;-93
2024/01/24 01:25:57;;;;;;;33.75;5.55;;;;;;;8.89;100.00;100023.09;5032169;28;20045;-92
2024/01/24 01:28:23;;;;;;;39.92;6.07;;;;;;;8.86;100.00;100026.00;5012705;28;20413;-91
2024/01/24 01:30:49;;;;;;;29.13;5.53;;;;;;;8.84;100.00;100017.44;4997551;28;20069;-92
2024/01/24 01:33:14;;;;;;;33.58;6.10;;;;;;;8.80;100.00;100038.81;4998001;28;20033;-93
2024/01/24 01:35:40;;;;;;;28.48;5.90;;;;;;;8.76;100.00;100057.69;4986047;28;20038;-93
2024/01/24 01:38:15;;;;;;;40.40;6.18;;;;;;;8.73;100.00;100058.78;5008451;28;20032;-92
2024/01/24 01:41:09;;;;;;;38.13;6.40;;;;;;;8.78;100.00;100071.53;5016303;28;20051;-92
2024/01/24 01:43:35;;;;;;;34.88;5.80;;;;;;;8.64;100.00;100072.81;4986464;28;20052;-91
2024/01/24 01:46:06;;;;;;;43.72;7.82;;;;;;;8.71;100.00;100089.72;4997795;28;20036;-93
2024/01/24 01:48:34;;;;;;;42.17;6.72;;;;;;;8.77;100.00;100081.25;5003921;28;20123;-93
2024/01/24 01:51:00;;;;;;;47.50;9.10;;;;;;;8.71;100.00;100096.78;5003121;28;20037;-93
2024/01/24 01:53:38;;;;;;;41.40;7.30;;;;;;;8.82;100.00;100104.56;5009097;28;20483;-92
2024/01/24 01:56:11;;;;;;;55.63;9.60;;;;;;;8.88;100.00;100111.88;5017237;28;20037;-93
2024/01/24 01:58:47;;;;;;;33.83;6.00;;;;;;;8.90;100.00;100124.94;5025187;28;20171;-93
2024/01/24 02:01:15;;;;;;;38.42;7.57;;;;;;;8.88;100.00;100114.53;4993654;28;20038;-94
2024/01/24 02:03:46;;;;;;;45.22;7.20;;;;;;;8.89;100.00;100146.97;5001183;28;20040;-96
2024/01/24 02:06:15;;;;;;;49.15;7.63;;;;;;;8.96;100.00;100140.16;4991540;28;20092;-93
2024/01/24 02:08:43;;;;;;;39.38;6.70;;;;;;;8.92;100.00;100138.78;5010730;28;20062;-93
2024/01/24 02:11:18;;;;;;;42.63;7.55;;;;;;;8.97;100.00;100154.16;5007775;28;20483;-95
2024/01/24 02:13:44;;;;;;;24.15;5.30;;;;;;;8.89;100.00;100163.63;5000154;28;20710;-95
2024/01/24 02:16:13;;;;;;;31.35;5.43;;;;;;;8.91;100.00;100189.84;5003855;28;20042;-93
2024/01/24 02:19:11;;;;;;;32.55;5.07;;;;;;;8.97;100.00;100194.56;5020297;28;20045;-93
2024/01/24 02:25:11;;;;;;;32.30;5.05;;;;;;;8.78;100.00;100209.41;5002630;28;20126;-92
2024/01/24 02:27:46;;;;;;;29.73;5.63;;;;;;;8.79;100.00;100226.88;5015043;28;20096;-96
2024/01/24 02:30:35;;;;;;;38.30;6.13;;;;;;;8.78;100.00;100246.31;5009406;28;20138;-95
2024/01/24 02:33:08;;;;;;;30.67;5.82;;;;;;;8.64;100.00;100238.78;5016925;28;20028;-93
2024/01/24 02:35:37;;;;;;;28.67;5.10;;;;;;;8.63;100.00;100248.47;5037474;28;20037;-94
2024/01/24 02:38:06;;;;;;;36.10;6.18;;;;;;;8.60;100.00;100242.69;5001866;28;20029;-93
2024/01/24 02:40:32;;;;;;;29.30;5.20;;;;;;;8.57;100.00;100280.66;5016660;28;20041;-95
2024/01/24 02:42:58;;;;;;;30.80;4.53;;;;;;;8.51;100.00;100273.25;5002866;28;20043;-94
2024/01/24 02:45:27;;;;;;;23.55;4.47;;;;;;;8.49;100.00;100278.66;5000169;28;20072;-92
2024/01/24 02:47:53;;;;;;;31.58;5.65;;;;;;;8.48;100.00;100290.19;4993433;28;20042;-93
2024/01/24 02:50:19;;;;;;;28.15;6.40;;;;;;;8.51;100.00;100300.44;5027241;28;20124;-93
2024/01/24 02:52:48;;;;;;;32.88;4.68;;;;;;;8.51;100.00;100294.31;5015665;28;20029;-94
2024/01/24 02:55:25;;;;;;;26.55;4.97;;;;;;;8.40;100.00;100300.53;5016272;28;20530;-92
2024/01/24 02:57:56;;;;;;;24.67;4.70;;;;;;;8.43;100.00;100316.91;4991179;28;20064;-94
2024/01/24 03:00:37;;;;;;;34.13;5.40;;;;;;;8.40;100.00;100330.34;4999953;28;20037;-94
2024/01/24 03:03:03;;;;;;;30.08;5.63;;;;;;;8.32;100.00;100317.84;5019803;28;20036;-95
2024/01/24 03:05:30;;;;;;;33.85;4.72;;;;;;;8.32;100.00;100324.91;5000365;28;20056;-92
2024/01/24 03:07:59;;;;;;;33.08;4.70;;;;;;;8.31;100.00;100333.78;4996155;28;20481;-93
2024/01/24 03:10:43;;;;;;;46.92;5.97;;;;;;;8.24;100.00;100337.91;5005110;28;20037;-94
2024/01/24 03:13:09;;;;;;;31.30;5.28;;;;;;;8.20;100.00;100345.25;4999693;28;20059;-95
2024/01/24 03:15:35;;;;;;;34.58;5.82;;;;;;;8.21;100.00;100364.50;5009123;28;20036;-93
2024/01/24 03:18:02;;;;;;;25.77;4.72;;;;;;;8.24;100.00;100366.84;5024994;28;20394;-93
2024/01/24 03:20:27;;;;;;;33.05;6.70;;;;;;;8.25;100.00;100364.09;4992930;28;20104;-93
2024/01/24 03:22:53;;;;;;;24.23;5.10;;;;;;;8.29;100.00;100368.16;5002647;28;20187;-92
2024/01/24 03:25:22;;;;;;;35.70;5.70;;;;;;;8.30;100.00;100374.22;5003745;28;20024;-95
2024/01/24 03:28:10;;;;;;;33.50;5.72;;;;;;;8.29;100.00;100391.00;4996657;28;20068;-96
2024/01/24 03:30:38;;;;;;;33.55;7.20;;;;;;;8.36;100.00;100397.41;5004637;28;20033;-95
2024/01/24 03:33:10;;;;;;;38.70;6.60;;;;;;;8.39;100.00;100397.16;4998916;28;20090;-94
2024/01/24 03:35:40;;;;;;;36.28;6.25;;;;;;;8.42;100.00;100414.50;5012151;28;20517;-92
2024/01/24 03:38:06;;;;;;;35.75;6.50;;;;;;;8.41;100.00;100428.63;4997853;28;20029;-93
2024/01/24 03:40:32;;;;;;;34.00;7.18;;;;;;;8.42;100.00;100454.00;5017403;28;20296;-92
2024/01/24 03:42:58;;;;;;;25.77;5.80;;;;;;;8.39;100.00;100460.34;5009790;28;20039;-93
2024/01/24 03:45:24;;;;;;;28.70;4.65;;;;;;;8.38;100.00;100474.50;4999460;28;20037;-92
2024/01/24 03:47:50;;;;;;;24.98;4.53;;;;;;;8.28;100.00;100484.16;4993140;28;20052;-91
2024/01/24 03:50:16;;;;;;;18.17;2.75;;;;;;;8.18;100.00;100482.28;4999076;28;20037;-93
2024/01/24 03:52:42;;;;;;;14.95;2.50;;;;;;;8.06;100.00;100504.34;5008166;28;20478;-92
2024/01/24 03:55:08;;;;;;;30.75;4.00;;;;;;;8.01;100.00;100512.63;5002817;28;20032;-93
2024/01/24 03:57:33;;;;;;;21.40;3.53;;;;;;;7.99;100.00;100519.81;5012360;28;20037;-93
2024/01/24 03:59:59;;;;;;;28.40;4.63;;;;;;;8.00;100.00;100513.59;5001786;28;20028;-92
2024/01/24 04:02:25;;;;;;;24.95;4.95;;;;;;;8.01;100.00;100517.88;5012957;28;20048;-92
2024/01/24 04:04:51;;;;;;;37.35;6.57;;;;;;;8.03;100.00;100518.59;4999005;28;20122;-92
2024/01/24 04:07:16;;;;;;;43.22;6.63;;;;;;;8.07;100.00;100533.19;5002090;28;20037;-93
2024/01/24 04:09:42;;;;;;;40.70;6.00;;;;;;;8.12;100.00;100553.03;5002605;28;20380;-92
2024/01/24 04:12:08;;;;;;;41.88;6.60;;;;;;;8.09;100.00;100545.41;4988322;28;20085;-93
2024/01/24 04:14:34;;;;;;;31.15;6.55;;;;;;;8.06;100.00;100559.63;4977094;28;20040;-93
2024/01/24 04:17:00;;;;;;;39.53;7.15;;;;;;;8.07;100.00;100543.72;4980039;28;20036;-92
2024/01/24 04:19:25;;;;;;;42.38;7.75;;;;;;;8.09;100.00;100545.41;4976271;28;20504;-92
2024/01/24 04:21:52;;;;;;;46.25;5.78;;;;;;;8.10;100.00;100552.31;4995513;28;20120;-92
2024/01/24 04:24:17;;;;;;;43.90;7.18;;;;;;;8.11;100.00;100546.94;4984735;28;20118;-92
2024/01/24 04:26:43;;;;;;;47.75;7.38;;;;;;;8.11;100.00;100546.94;4995941;28;20070;-92
2024/01/24 04:29:09;;;;;;;41.92;6.45;;;;;;;8.15;100.00;100556.28;5024681;28;20076;-92
2024/01/24 04:31:35;;;;;;;30.70;5.63;;;;;;;8.15;100.00;100579.13;4995641;28;20421;-93
2024/01/24 04:34:00;;;;;;;36.50;6.70;;;;;;;8.15;100.00;100565.97;4993712;28;20053;-92
2024/01/24 04:36:26;;;;;;;39.72;5.68;;;;;;;8.12;100.00;100571.47;4975810;28;20072;-92
2024/01/24 04:38:52;;;;;;;35.88;6.18;;;;;;;8.13;100.00;100581.88;4989190;28;20045;-92
2024/01/24 04:41:18;;;;;;;27.33;5.40;;;;;;;8.13;100.00;100581.88;4993540;28;20073;-92
2024/01/24 04:43:43;;;;;;;37.75;5.75;;;;;;;8.09;100.00;100585.69;4971435;28;20098;-93
2024/01/24 04:46:14;;;;;;;31.27;5.35;;;;;;;8.15;100.00;100589.66;5003244;28;20033;-92
2024/01/24 04:48:41;;;;;;;32.60;4.95;;;;;;;8.10;100.00;100607.59;4980352;28;20052;-91
2024/01/24 04:51:07;;;;;;;32.95;5.38;;;;;;;8.07;100.00;100622.69;4990212;28;20064;-93
2024/01/24 04:53:34;;;;;;;32.53;4.65;;;;;;;8.05;100.00;100597.44;4983639;28;20634;-91
2024/01/24 04:55:59;;;;;;;36.28;5.22;;;;;;;8.06;100.00;100630.72;5001775;28;20181;-93
2024/01/24 04:58:25;;;;;;;32.63;4.90;;;;;;;8.05;100.00;100635.16;5028263;28;20050;-93
2024/01/24 05:00:51;;;;;;;29.48;5.68;;;;;;;8.03;100.00;100633.59;4981129;28;20048;-94
2024/01/24 05:03:17;;;;;;;34.97;5.85;;;;;;;8.02;100.00;100639.81;4985642;28;20044;-93
2024/01/24 05:05:42;;;;;;;37.45;6.90;;;;;;;7.99;100.00;100656.72;5014374;28;20037;-93
2024/01/24 05:08:08;;;;;;;35.85;5.60;;;;;;;7.95;100.00;100657.88;4979718;28;20033;-92
2024/01/24 05:10:34;;;;;;;35.42;5.47;;;;;;;7.91;100.00;100649.41;4986208;28;20030;-92
2024/01/24 05:13:00;;;;;;;43.47;7.15;;;;;;;7.89;100.00;100639.94;5008004;28;20045;-93
2024/01/24 05:15:25;;;;;;;29.38;4.50;;;;;;;7.88;100.00;100652.31;5007350;28;20041;-93
2024/01/24 05:17:51;;;;;;;30.10;4.95;;;;;;;7.86;100.00;100672.63;5015620;28;20076;-92
2024/01/24 05:20:17;;;;;;;29.88;3.90;;;;;;;7.85;100.00;100696.44;5013919;28;20040;-92
2024/01/24 05:22:43;;;;;;;22.60;4.90;;;;;;;7.85;100.00;100699.06;5001237;28;20037;-92
2024/01/24 05:25:09;;;;;;;21.60;4.35;;;;;;;7.79;100.00;100698.59;5000655;28;20403;-92
2024/01/24 05:27:35;;;;;;;29.17;4.80;;;;;;;7.78;100.00;100707.44;5034158;28;20037;-92
2024/01/24 05:30:03;;;;;;;27.15;4.22;;;;;;;7.73;100.00;100685.91;5006095;28;20558;-93
2024/01/24 05:32:29;;;;;;;34.88;5.50;;;;;;;7.69;100.00;100677.41;5012153;28;20036;-92
2024/01/24 05:34:55;;;;;;;29.17;4.47;;;;;;;7.66;100.00;100684.72;5024748;28;20040;-92
2024/01/24 05:37:20;;;;;;;29.23;5.63;;;;;;;7.65;100.00;100706.69;5018213;28;20490;-91
2024/01/24 05:39:47;;;;;;;30.52;5.25;;;;;;;7.63;100.00;100719.97;5001885;28;20140;-92
2024/01/24 05:42:13;;;;;;;34.50;6.07;;;;;;;7.66;100.00;100717.09;5018153;28;20156;-91
2024/01/24 05:44:38;;;;;;;32.83;5.47;;;;;;;7.66;100.00;100711.03;4999414;28;20041;-92
2024/01/24 05:47:05;;;;;;;31.60;5.78;;;;;;;7.67;100.00;100718.81;5017590;28;20040;-92
2024/01/24 05:49:35;;;;;;;30.67;5.38;;;;;;;7.72;100.00;100713.19;5001922;28;20029;-91
2024/01/24 05:52:01;;;;;;;24.00;4.10;;;;;;;7.68;100.00;100707.31;5016722;28;20037;-92
2024/01/24 05:54:27;;;;;;;37.78;6.40;;;;;;;7.69;100.00;100716.88;5026403;28;20390;-93
2024/01/24 05:56:53;;;;;;;38.03;7.43;;;;;;;7.67;100.00;100708.28;5011018;28;20037;-94
2024/01/24 05:59:18;;;;;;;36.10;5.82;;;;;;;7.71;100.00;100706.22;5001481;28;20036;-93
2024/01/24 06:01:44;;;;;;;33.75;5.13;;;;;;;7.71;100.00;100721.19;5049829;28;20036;-92
2024/01/24 06:04:10;;;;;;;38.15;5.38;;;;;;;7.71;100.00;100739.63;5022475;28;20045;-92
2024/01/24 06:06:36;;;;;;;44.55;7.05;;;;;;;7.68;100.00;100706.47;5028279;28;20033;-92
2024/01/24 06:09:01;;;;;;;37.17;6.15;;;;;;;7.69;100.00;100689.75;5003595;28;20066;-93
2024/01/24 06:11:27;;;;;;;45.92;6.90;;;;;;;7.68;100.00;100699.41;5022668;28;20513;-93
2024/01/24 06:13:53;;;;;;;43.90;7.50;;;;;;;7.69;100.00;100750.25;5004314;28;20037;-94
2024/01/24 06:16:19;;;;;;;48.72;7.10;;;;;;;7.69;100.00;100766.03;5020049;28;20025;-92
2024/01/24 06:18:44;;;;;;;40.35;6.93;;;;;;;7.67;100.00;100773.22;5000336;28;20029;-92
2024/01/24 06:21:10;;;;;;;35.47;6.45;;;;;;;7.67;100.00;100765.31;5000890;28;20065;-94
2024/01/24 06:23:36;;;;;;;34.50;5.13;;;;;;;7.66;100.00;100763.66;5021181;28;20382;-94
2024/01/24 06:26:02;;;;;;;38.95;7.88;;;;;;;7.62;100.00;100784.09;5014171;28;20021;-91
2024/01/24 06:28:28;;;;;;;41.50;5.40;;;;;;;7.60;100.00;100782.53;5024887;28;20124;-91
2024/01/24 06:30:54;;;;;;;41.47;7.88;;;;;;;7.57;100.00;100779.16;4998649;28;20403;-92
2024/01/24 06:33:20;;;;;;;37.83;6.60;;;;;;;7.57;100.00;100775.69;4995715;28;20497;-92
2024/01/24 06:35:45;;;;;;;34.35;5.53;;;;;;;7.55;100.00;100767.06;5014438;28;20033;-91
2024/01/24 06:38:12;;;;;;;46.80;6.75;;;;;;;7.52;100.00;100773.41;4991582;28;20495;-92
2024/01/24 06:40:38;;;;;;;41.80;5.80;;;;;;;7.49;100.00;100786.81;5028888;28;20045;-93
2024/01/24 06:43:03;;;;;;;42.03;6.38;;;;;;;7.48;100.00;100789.53;5001871;28;20044;-93
2024/01/24 06:45:29;;;;;;;34.05;5.25;;;;;;;7.44;100.00;100816.06;5016345;28;20032;-91
2024/01/24 06:47:55;;;;;;;46.47;7.57;;;;;;;7.42;100.00;100830.31;5000480;28;20033;-91
2024/01/24 06:50:20;;;;;;;38.42;6.28;;;;;;;7.41;100.00;100824.19;4999056;28;20032;-91
2024/01/24 06:52:46;;;;;;;37.03;6.22;;;;;;;7.42;100.00;100827.69;5011879;28;20044;-90
2024/01/24 06:55:13;;;;;;;43.60;6.18;;;;;;;7.42;100.00;100825.03;5001871;28;20029;-92
2024/01/24 06:57:39;;;;;;;34.28;5.60;;;;;;;7.42;100.00;100838.19;5007448;28;20032;-92
2024/01/24 07:00:06;;;;;;;38.22;5.25;;;;;;;7.42;100.00;100846.91;5001235;28;20033;-90
2024/01/24 07:02:32;;;;;;;47.90;6.53;;;;;;;7.42;100.00;100841.66;5041199;28;20033;-92
2024/01/24 07:04:57;;;;;;;48.13;6.45;;;;;;;7.42;100.00;100840.81;5010607;28;20087;-92
2024/01/24 07:07:24;;;;;;;41.10;6.25;;;;;;;7.44;100.00;100857.31;5012218;28;20041;-92
2024/01/24 07:09:50;;;;;;;51.63;7.50;;;;;;;7.46;100.00;100884.34;5033428;28;20128;-91
2024/01/24 07:12:16;;;;;;;40.10;6.88;;;;;;;7.49;100.00;100876.22;5011300;28;20049;-91
2024/01/24 07:14:42;;;;;;;42.17;6.75;;;;;;;7.48;100.00;100902.66;4993656;28;20046;-92
2024/01/24 07:17:08;;;;;;;40.80;6.03;;;;;;;7.51;100.00;100898.00;4994362;28;20132;-91
2024/01/24 07:19:34;;;;;;;45.03;7.15;;;;;;;7.52;100.00;100918.09;5011461;28;20490;-94
2024/01/24 07:21:59;;;;;;;36.03;5.93;;;;;;;7.51;100.00;100928.72;5012489;28;20066;-94
2024/01/24 07:24:25;;;;;;;38.75;7.07;;;;;;;7.51;100.00;100934.84;5008364;28;20479;-92
2024/01/24 07:26:51;;;;;;;41.03;6.50;;;;;;;7.53;100.00;100958.41;5003830;28;20065;-92
2024/01/24 07:29:17;;;;;;;47.95;7.22;;;;;;;7.51;100.00;100952.41;5000862;28;20041;-92
2024/01/24 07:31:43;;;;;;;45.75;7.70;;;;;;;7.49;100.00;100944.63;5002474;28;20038;-94
2024/01/24 07:34:11;;;;;;;43.55;7.35;;;;;;;7.50;100.00;100954.19;5006431;28;20033;-91
2024/01/24 07:36:37;;;;;;;37.42;6.85;;;;;;;7.47;100.00;100954.41;4996975;28;20036;-91
2024/01/24 07:39:04;;;;;;;48.40;7.65;;;;;;;7.45;100.00;100957.16;5008701;28;20025;-91
2024/01/24 07:41:30;;;;;;;48.40;7.97;;;;;;;7.40;100.00;100955.81;5011763;28;20049;-95
2024/01/24 07:43:57;;;;;;;38.38;7.22;;;;;;;7.35;100.00;100944.78;4984757;28;20448;-96
2024/01/24 07:46:25;;;;;;;34.08;6.47;;;;;;;7.33;100.00;100950.16;4995728;28;20703;-92
2024/01/24 07:48:51;;;;;;;37.03;6.25;;;;;;;7.30;100.00;100964.38;4987580;28;20041;-90
2024/01/24 07:51:17;;;;;;;43.15;6.20;;;;;;;7.31;100.00;100970.47;4994822;28;20041;-96
2024/01/24 07:53:44;;;;;;;30.67;6.15;;;;;;;7.27;100.00;100969.00;4993830;28;20048;-95
2024/01/24 07:56:12;;;;;;;49.90;6.72;;;;;;;7.32;100.00;100991.41;4999487;28;20045;-92
2024/01/24 07:58:42;;;;;;;40.25;7.45;;;;;;;7.41;100.00;100996.94;5007309;28;20132;-94
2024/01/24 08:01:08;;;;;;;38.72;6.40;;;;;;;7.37;100.00;100990.22;5008200;28;20033;-92
2024/01/24 08:03:35;;;;;;;44.10;6.93;;;;;;;7.38;100.00;101002.41;5021608;28;20052;-92
2024/01/24 08:06:01;;;;;;;41.65;8.20;;;;;;;7.37;100.00;101009.47;4997200;28;20057;-92
2024/01/24 08:08:27;;;;;;;36.38;7.22;;;;;;;7.38;100.00;101010.31;4989059;28;20033;-92
2024/01/24 08:10:52;;;;;;;46.05;6.25;;;;;;;7.37;100.00;101008.63;4986790;28;20048;-92
2024/01/24 08:13:19;;;;;;;43.55;6.90;;;;;;;7.36;100.00;101022.75;5006118;28;20051;-92
2024/01/24 08:15:48;;;;;;;42.72;7.68;;;;;;;7.30;100.00;101018.75;4982684;28;20068;-92
2024/01/24 08:18:14;;;;;;;53.47;7.32;;;;;;;7.28;100.00;101013.59;4979790;28;20037;-94
2024/01/24 08:20:40;;;;;;;40.22;7.63;;;;;;;7.31;100.00;101017.81;4994952;28;20045;-92
2024/01/24 08:23:06;;;;;;;40.28;6.80;;;;;;;7.28;100.00;101020.63;5003923;28;20150;-92
2024/01/24 08:25:31;;;;;;;46.97;7.13;;;;;;;7.28;100.00;101026.72;4995400;28;20030;-92
2024/01/24 08:27:57;;;;;;;47.83;7.43;;;;;;;7.26;100.00;101027.81;5023445;28;20064;-93
2024/01/24 08:30:23;;;;;;;36.58;6.38;;;;;;;7.25;100.00;101034.84;5012962;28;20113;-92
2024/01/24 08:32:50;;;;;;;34.10;5.88;;;;;;;7.26;100.00;101033.06;4987905;28;20076;-94
2024/01/24 08:35:16;;;;;;;35.10;6.15;;;;;;;7.25;100.00;101061.13;5014396;28;20045;-92
2024/01/24 08:37:42;;;;;;;40.92;7.45;;;;;;;7.23;100.00;101049.06;4977123;28;20494;-92
2024/01/24 08:40:10;;;;;;;43.60;7.53;;;;;;;7.22;100.00;101060.50;5018231;28;20049;-95
2024/01/24 08:42:36;;;;;;;55.88;7.93;;;;;;;7.23;100.00;101067.47;4980662;28;20045;-94
2024/01/24 08:45:02;;;;;;;44.30;6.97;;;;;;;7.24;100.00;101064.72;5024732;28;20072;-93
2024/01/24 08:47:28;;;;;;;39.65;6.28;;;;;;;7.28;100.00;101053.03;5009164;28;20060;-91
2024/01/24 08:49:56;;;;;;;42.45;8.45;;;;;;;7.28;100.00;101053.03;5011001;28;20057;-94
2024/01/24 08:52:23;;;;;;;41.03;7.13;;;;;;;7.32;100.00;101058.94;5005742;28;20491;-95
2024/01/24 08:54:50;;;;;;;37.80;6.70;;;;;;;7.34;100.00;101058.81;5011129;28;20075;-91
2024/01/24 08:57:16;;;;;;;39.10;8.00;;;;;;;7.34;100.00;101061.44;5016833;28;20566;-91
2024/01/24 08:59:42;;;;;;;46.85;8.25;;;;;;;7.33;100.00;101065.84;4993602;28;20041;-92
2024/01/24 09:02:07;;;;;;;45.65;7.20;;;;;;;7.33;100.00;101068.47;4999538;28;20029;-95
2024/01/24 09:04:33;;;;;;;45.40;7.50;;;;;;;7.30;100.00;101069.56;4996828;28;20037;-93
2024/01/24 09:06:59;;;;;;;47.75;6.95;;;;;;;7.29;100.00;101078.38;4982376;28;20030;-93
2024/01/24 09:09:25;;;;;;;50.60;9.40;;;;;;;7.27;100.00;101075.03;5015038;28;20033;-94
2024/01/24 09:11:51;;;;;;;34.00;6.07;;;;;;;7.23;100.00;101064.84;4986900;28;20053;-94
2024/01/24 09:14:18;;;;;;;43.08;7.68;;;;;;;7.23;100.00;101070.09;4999141;28;20429;-92
2024/01/24 09:16:44;;;;;;;46.70;6.53;;;;;;;7.24;100.00;101080.50;5007127;28;20040;-92
2024/01/24 09:19:09;;;;;;;33.45;5.75;;;;;;;7.26;100.00;101070.69;5016103;28;20390;-93
2024/01/24 09:21:36;;;;;;;37.80;7.55;;;;;;;7.28;100.00;101060.06;5004108;28;20037;-92
2024/01/24 09:24:03;;;;;;;36.80;6.20;;;;;;;7.35;100.00;101074.50;5006954;28;20567;-92
2024/01/24 09:26:29;;;;;;;48.25;6.38;;;;;;;7.39;100.00;101075.13;5000759;28;20057;-94
2024/01/24 09:28:54;;;;;;;35.53;6.78;;;;;;;7.43;100.00;101087.94;5017185;28;20045;-93
2024/01/24 09:31:20;;;;;;;44.33;5.93;;;;;;;7.44;100.00;101088.78;5004054;28;20131;-93
2024/01/24 09:33:46;;;;;;;31.63;7.18;;;;;;;7.47;100.00;101098.25;4999483;28;20376;-92
2024/01/24 09:36:13;;;;;;;41.85;5.72;;;;;;;7.45;100.00;101091.28;5012114;28;20033;-94
2024/01/24 09:38:42;;;;;;;33.97;6.10;;;;;;;7.52;100.00;101096.13;5002282;28;20495;-91
2024/01/24 09:41:21;;;;;;;31.23;5.70;;;;;;;7.52;100.00;101112.75;5001632;28;20099;-93
2024/01/24 09:43:48;;;;;;;36.85;5.72;;;;;;;7.52;100.00;101119.78;5007851;28;20033;-95
2024/01/24 09:46:18;;;;;;;37.10;6.65;;;;;;;7.54;100.00;101120.53;4999916;28;20036;-93
2024/01/24 09:48:45;;;;;;;31.60;5.63;;;;;;;7.54;100.00;101113.50;5019017;28;20349;-93
2024/01/24 09:51:12;;;;;;;33.67;4.97;;;;;;;7.55;100.00;101122.22;5013918;28;20052;-92
2024/01/24 09:53:45;;;;;;;39.95;7.05;;;;;;;7.55;100.00;101122.22;5006595;28;20510;-92
2024/01/24 09:56:13;;;;;;;32.80;6.13;;;;;;;7.45;100.00;101109.69;5033504;28;20032;-93
2024/01/24 09:58:39;;;;;;;35.72;5.68;;;;;;;7.48;100.00;101120.97;5016743;28;20033;-94
2024/01/24 10:01:12;;;;;;;44.75;6.70;;;;;;;7.54;100.00;101125.78;4997209;28;20037;-92
2024/01/24 10:03:39;;;;;;;27.73;5.20;;;;;;;7.55;100.00;101138.00;5000071;28;20037;-94
2024/01/24 10:06:09;;;;;;;38.38;5.97;;;;;;;7.62;100.00;101127.88;5009219;28;20108;-94
2024/01/24 10:08:35;;;;;;;43.55;6.53;;;;;;;7.62;100.00;101135.78;5000858;28;20695;-93
2024/01/24 10:11:01;;;;;;;33.65;6.28;;;;;;;7.66;100.00;101140.72;4992454;28;20116;-93
2024/01/24 10:13:27;;;;;;;52.92;7.40;;;;;;;7.67;100.00;101139.78;5047360;28;20061;-92
2024/01/24 10:15:53;;;;;;;37.33;6.38;;;;;;;7.69;100.00;101150.22;4998881;28;20084;-92
2024/01/24 10:18:19;;;;;;;36.15;5.63;;;;;;;7.68;100.00;101141.47;5023336;28;20070;-93
2024/01/24 10:20:48;;;;;;;36.55;6.85;;;;;;;7.79;100.00;101145.09;5013955;28;20037;-96
2024/01/24 10:23:15;;;;;;;34.72;5.90;;;;;;;7.80;100.00;101157.34;5001737;28;20036;-94
2024/01/24 10:25:41;;;;;;;34.90;6.18;;;;;;;7.80;100.00;101163.41;5036409;28;20041;-92
2024/01/24 10:28:14;;;;;;;38.47;6.80;;;;;;;7.86;100.00;101167.44;5023070;28;20347;-93
2024/01/24 10:30:41;;;;;;;36.08;6.20;;;;;;;7.84;100.00;101179.00;5006182;28;20315;-92
2024/01/24 10:33:11;;;;;;;31.63;5.63;;;;;;;7.88;100.00;101185.75;5001248;28;20076;-92
2024/01/24 10:35:38;;;;;;;26.88;4.80;;;;;;;7.84;100.00;101179.84;5031633;28;20398;-93
2024/01/24 10:38:05;;;;;;;45.20;7.78;;;;;;;7.85;100.00;101180.69;5005802;28;20037;-91
2024/01/24 10:40:31;;;;;;;43.45;5.55;;;;;;;7.87;100.00;101179.63;4998778;28;20037;-92
2024/01/24 10:43:05;;;;;;;39.63;8.00;;;;;;;7.90;100.00;101184.69;4995291;28;20041;-94
2024/01/24 10:45:32;;;;;;;31.20;5.20;;;;;;;7.89;100.00;101187.41;4999277;28;20043;-94
2024/01/24 10:47:59;;;;;;;31.10;5.97;;;;;;;7.94;100.00;101203.75;4999282;28;20030;-91
2024/01/24 10:50:25;;;;;;;40.53;6.50;;;;;;;7.93;100.00;101192.34;5017909;28;20486;-94
2024/01/24 10:52:54;;;;;;;32.10;5.43;;;;;;;7.93;100.00;101186.28;5020051;28;20032;-92
2024/01/24 10:55:21;;;;;;;35.30;6.90;;;;;;;7.96;100.00;101191.31;5034040;28;20094;-92
2024/01/24 10:57:47;;;;;;;33.20;5.38;;;;;;;7.97;100.00;101200.88;5008610;28;20037;-92
2024/01/24 11:00:17;;;;;;;37.33;5.45;;;;;;;7.99;100.00;101201.63;5019853;28;20104;-94
2024/01/24 11:02:43;;;;;;;37.83;6.10;;;;;;;7.97;100.00;101194.78;5017294;28;20029;-94
2024/01/24 11:05:17;;;;;;;36.15;5.45;;;;;;;8.03;100.00;101204.88;5001346;28;20372;-94
2024/01/24 11:08:12;;;;;;;34.65;6.40;;;;;;;8.05;100.00;101213.50;5022443;28;20033;-94
2024/01/24 11:10:42;;;;;;;31.77;5.80;;;;;;;8.02;100.00;101219.00;4981987;28;20052;-94
2024/01/24 11:13:11;;;;;;;41.67;5.97;;;;;;;8.07;100.00;101220.34;5014587;28;20041;-94
2024/01/24 11:15:37;;;;;;;36.60;6.15;;;;;;;8.11;100.00;101222.75;5013311;28;20041;-92
2024/01/24 11:18:27;;;;;;;37.65;5.82;;;;;;;8.23;100.00;101234.22;5008313;28;20025;-92
2024/01/24 11:20:56;;;;;;;33.35;5.38;;;;;;;8.23;100.00;101237.72;5011304;28;20043;-93
2024/01/24 11:23:40;;;;;;;36.53;5.93;;;;;;;8.30;100.00;101217.88;5017704;28;20033;-94
2024/01/24 11:26:29;;;;;;;36.88;6.60;;;;;;;8.32;100.00;101225.66;5017836;28;20041;-94
2024/01/24 11:29:04;;;;;;;41.90;7.88;;;;;;;8.37;100.00;101235.88;5007422;28;20049;-92
2024/01/24 11:31:38;;;;;;;37.92;7.05;;;;;;;8.38;100.00;101234.91;4998185;28;20040;-94